Other Surface Observations
Issued by NWS Great Falls, MT

Home | Current Version | Previous Version | Text Only | Print | Product List | Glossary On
Versions: 1 2 3 4 5 6 7 8 9 10 11 12 13 14 15 16 17 18 19 20 21 22 23 24 25 26 27 28 29 30 31 32 33 34 35 36 37 38 39 40 41 42 43 44 45 46 47 48 49 50
000
SXUS55 KTFX 290408
OSOTFX
AREA AWOS OBSERVATIONS
NATIONAL WEATHER SERVICE GREAT FALLS MT
1005 PM MDT THU AUG 28 2014

METAR KPWD 290400Z AUTO 33005KT 10SM 19/14 A2980 RMK PLENTYWOOD
METAR K1S3 290400Z AUTO 00000KT 10SM 21/11 A2984 RMK FORSYTH
METAR KS71 290400Z AUTO 34010G19KT 10SM 16/11 A2998 RMK CHINOOK
METAR K6S0 290400Z AUTO 10SM 23/07 A2999 RMK BIG TIMBER
METAR K79S 290400Z AUTO 35011G21KT 10SM 16/10 A3003 RMK FORT BENTON
METAR KEKS 290400Z AUTO 16009KT 5SM 17/11 A3017 RMK ENNIS
METAR K38S 290400Z AUTO 30007KT 10SM 18/03 A3009 RMK DEER LODGE
METAR K6S5 290400Z AUTO 12004KT 10SM 21/09 A3002 RMK HAMILTON
METAR KS59 290400Z AUTO 00000KT 10SM 19/11 A2999 RMK LIBBY
METAR K88M 290400Z AUTO 00000KT 10SM 17/12 A3002 RMK EUREKA



USA.gov is the U.S. government's official web portal to all federal, state and local government web resources and services.